sensor_id;sensor_type;location;lat;lon;timestamp;P1;durP1;ratioP1;P2;durP2;ratioP2
42704;SDS011;28342;42.594;23.414;2022-09-27T00:00:29;4.40;;;3.13;;
42704;SDS011;28342;42.594;23.414;2022-09-27T00:02:56;5.13;;;3.38;;
42704;SDS011;28342;42.594;23.414;2022-09-27T00:05:22;4.65;;;3.30;;
42704;SDS011;28342;42.594;23.414;2022-09-27T00:07:51;4.40;;;3.50;;
42704;SDS011;28342;42.594;23.414;2022-09-27T00:10:17;3.78;;;2.63;;
42704;SDS011;28342;42.594;23.414;2022-09-27T00:12:44;3.15;;;2.38;;
42704;SDS011;28342;42.594;23.414;2022-09-27T00:15:09;4.03;;;2.72;;
42704;SDS011;28342;42.594;23.414;2022-09-27T00:17:38;5.00;;;2.70;;
42704;SDS011;28342;42.594;23.414;2022-09-27T00:20:05;5.00;;;3.25;;
42704;SDS011;28342;42.594;23.414;2022-09-27T00:22:31;4.57;;;2.80;;
42704;SDS011;28342;42.594;23.414;2022-09-27T00:24:58;2.88;;;2.17;;
42704;SDS011;28342;42.594;23.414;2022-09-27T00:27:26;3.85;;;1.70;;
42704;SDS011;28342;42.594;23.414;2022-09-27T00:30:12;5.55;;;2.58;;
42704;SDS011;28342;42.594;23.414;2022-09-27T00:32:38;3.47;;;2.50;;
42704;SDS011;28342;42.594;23.414;2022-09-27T00:35:04;2.50;;;2.15;;
42704;SDS011;28342;42.594;23.414;2022-09-27T00:37:29;2.75;;;1.90;;
42704;SDS011;28342;42.594;23.414;2022-09-27T00:40:03;5.15;;;2.08;;
42704;SDS011;28342;42.594;23.414;2022-09-27T00:42:29;2.97;;;2.08;;
42704;SDS011;28342;42.594;23.414;2022-09-27T00:45:02;1.65;;;1.55;;
42704;SDS011;28342;42.594;23.414;2022-09-27T00:47:35;3.75;;;1.90;;
42704;SDS011;28342;42.594;23.414;2022-09-27T00:55:35;8.32;;;6.35;;
42704;SDS011;28342;42.594;23.414;2022-09-27T00:58:20;11.73;;;6.40;;
42704;SDS011;28342;42.594;23.414;2022-09-27T01:00:55;10.70;;;7.05;;
42704;SDS011;28342;42.594;23.414;2022-09-27T01:03:44;12.57;;;7.13;;
42704;SDS011;28342;42.594;23.414;2022-09-27T01:06:23;12.05;;;8.15;;
42704;SDS011;28342;42.594;23.414;2022-09-27T01:08:48;21.45;;;8.50;;
42704;SDS011;28342;42.594;23.414;2022-09-27T01:22:28;11.77;;;8.65;;
42704;SDS011;28342;42.594;23.414;2022-09-27T01:25:48;13.18;;;9.13;;
42704;SDS011;28342;42.594;23.414;2022-09-27T01:28:16;12.30;;;9.43;;
42704;SDS011;28342;42.594;23.414;2022-09-27T01:36:41;14.77;;;9.95;;
42704;SDS011;28342;42.594;23.414;2022-09-27T01:42:24;14.48;;;11.43;;
42704;SDS011;28342;42.594;23.414;2022-09-27T01:45:00;16.27;;;10.73;;
42704;SDS011;28342;42.594;23.414;2022-09-27T01:47:56;12.77;;;10.60;;
42704;SDS011;28342;42.594;23.414;2022-09-27T01:50:28;14.98;;;10.95;;
42704;SDS011;28342;42.594;23.414;2022-09-27T01:55:57;16.80;;;10.98;;
42704;SDS011;28342;42.594;23.414;2022-09-27T01:58:32;14.88;;;11.18;;
42704;SDS011;28342;42.594;23.414;2022-09-27T02:01:05;14.98;;;9.80;;
42704;SDS011;28342;42.594;23.414;2022-09-27T02:03:36;14.43;;;9.93;;
42704;SDS011;28342;42.594;23.414;2022-09-27T02:08:37;14.35;;;10.25;;
42704;SDS011;28342;42.594;23.414;2022-09-27T02:11:08;15.32;;;10.38;;
42704;SDS011;28342;42.594;23.414;2022-09-27T02:13:41;14.02;;;10.20;;
42704;SDS011;28342;42.594;23.414;2022-09-27T02:21:54;17.00;;;10.38;;
42704;SDS011;28342;42.594;23.414;2022-09-27T02:24:41;15.15;;;11.23;;
42704;SDS011;28342;42.594;23.414;2022-09-27T02:27:20;13.30;;;9.82;;
42704;SDS011;28342;42.594;23.414;2022-09-27T02:29:52;15.18;;;11.13;;
42704;SDS011;28342;42.594;23.414;2022-09-27T02:32:24;16.05;;;10.63;;
42704;SDS011;28342;42.594;23.414;2022-09-27T02:34:54;15.80;;;11.20;;
42704;SDS011;28342;42.594;23.414;2022-09-27T02:37:38;14.80;;;10.95;;
42704;SDS011;28342;42.594;23.414;2022-09-27T02:40:04;15.68;;;11.02;;
42704;SDS011;28342;42.594;23.414;2022-09-27T02:42:30;13.20;;;9.40;;
42704;SDS011;28342;42.594;23.414;2022-09-27T02:44:58;16.17;;;11.00;;
42704;SDS011;28342;42.594;23.414;2022-09-27T03:01:31;10.13;;;8.75;;
42704;SDS011;28342;42.594;23.414;2022-09-27T03:06:45;12.35;;;9.00;;
42704;SDS011;28342;42.594;23.414;2022-09-27T03:09:20;9.20;;;7.07;;
42704;SDS011;28342;42.594;23.414;2022-09-27T03:11:46;12.93;;;7.82;;
42704;SDS011;28342;42.594;23.414;2022-09-27T03:14:13;9.55;;;7.63;;
42704;SDS011;28342;42.594;23.414;2022-09-27T03:16:39;12.85;;;7.75;;
42704;SDS011;28342;42.594;23.414;2022-09-27T03:19:05;8.20;;;7.22;;
42704;SDS011;28342;42.594;23.414;2022-09-27T03:21:31;12.00;;;7.70;;
42704;SDS011;28342;42.594;23.414;2022-09-27T03:23:59;9.48;;;7.47;;
42704;SDS011;28342;42.594;23.414;2022-09-27T03:26:25;11.30;;;7.43;;
42704;SDS011;28342;42.594;23.414;2022-09-27T03:28:51;10.45;;;8.13;;
42704;SDS011;28342;42.594;23.414;2022-09-27T03:31:20;8.15;;;7.03;;
42704;SDS011;28342;42.594;23.414;2022-09-27T03:33:50;7.38;;;6.65;;
42704;SDS011;28342;42.594;23.414;2022-09-27T03:36:15;8.82;;;7.35;;
42704;SDS011;28342;42.594;23.414;2022-09-27T03:38:41;7.80;;;6.55;;
42704;SDS011;28342;42.594;23.414;2022-09-27T03:41:08;10.50;;;8.55;;
42704;SDS011;28342;42.594;23.414;2022-09-27T03:43:43;14.70;;;8.98;;
42704;SDS011;28342;42.594;23.414;2022-09-27T03:46:09;15.55;;;9.70;;
42704;SDS011;28342;42.594;23.414;2022-09-27T03:48:35;16.45;;;9.65;;
42704;SDS011;28342;42.594;23.414;2022-09-27T03:51:01;12.95;;;10.15;;
42704;SDS011;28342;42.594;23.414;2022-09-27T03:53:28;13.68;;;9.77;;
42704;SDS011;28342;42.594;23.414;2022-09-27T03:55:55;16.58;;;11.13;;
42704;SDS011;28342;42.594;23.414;2022-09-27T03:58:25;15.45;;;10.68;;
42704;SDS011;28342;42.594;23.414;2022-09-27T04:00:52;11.10;;;9.13;;
42704;SDS011;28342;42.594;23.414;2022-09-27T04:03:17;16.23;;;10.30;;
42704;SDS011;28342;42.594;23.414;2022-09-27T04:05:44;13.32;;;10.88;;
42704;SDS011;28342;42.594;23.414;2022-09-27T04:08:10;15.07;;;11.50;;
42704;SDS011;28342;42.594;23.414;2022-09-27T04:10:36;12.60;;;10.25;;
42704;SDS011;28342;42.594;23.414;2022-09-27T04:13:02;16.45;;;11.82;;
42704;SDS011;28342;42.594;23.414;2022-09-27T04:15:28;14.75;;;11.02;;
42704;SDS011;28342;42.594;23.414;2022-09-27T04:17:54;13.77;;;10.75;;
42704;SDS011;28342;42.594;23.414;2022-09-27T04:20:21;12.60;;;10.13;;
42704;SDS011;28342;42.594;23.414;2022-09-27T04:22:47;13.05;;;10.30;;
42704;SDS011;28342;42.594;23.414;2022-09-27T04:25:14;16.58;;;11.52;;
42704;SDS011;28342;42.594;23.414;2022-09-27T04:27:45;14.02;;;10.73;;
42704;SDS011;28342;42.594;23.414;2022-09-27T04:30:12;14.05;;;10.70;;
42704;SDS011;28342;42.594;23.414;2022-09-27T04:32:45;16.08;;;11.73;;
42704;SDS011;28342;42.594;23.414;2022-09-27T04:35:14;15.73;;;11.38;;
42704;SDS011;28342;42.594;23.414;2022-09-27T04:37:59;11.10;;;9.43;;
42704;SDS011;28342;42.594;23.414;2022-09-27T04:40:25;17.85;;;10.32;;
42704;SDS011;28342;42.594;23.414;2022-09-27T04:42:54;17.10;;;11.65;;
42704;SDS011;28342;42.594;23.414;2022-09-27T04:45:21;15.65;;;12.60;;
42704;SDS011;28342;42.594;23.414;2022-09-27T04:51:21;25.13;;;17.75;;
42704;SDS011;28342;42.594;23.414;2022-09-27T04:53:59;20.58;;;14.90;;
42704;SDS011;28342;42.594;23.414;2022-09-27T04:56:30;20.95;;;16.15;;
42704;SDS011;28342;42.594;23.414;2022-09-27T05:02:09;24.63;;;17.48;;
42704;SDS011;28342;42.594;23.414;2022-09-27T05:04:57;24.60;;;16.85;;
42704;SDS011;28342;42.594;23.414;2022-09-27T05:07:36;27.67;;;18.23;;
42704;SDS011;28342;42.594;23.414;2022-09-27T05:13:06;22.42;;;16.42;;
42704;SDS011;28342;42.594;23.414;2022-09-27T05:16:04;23.70;;;17.58;;
42704;SDS011;28342;42.594;23.414;2022-09-27T05:22:19;24.25;;;17.88;;
42704;SDS011;28342;42.594;23.414;2022-09-27T05:24:53;23.85;;;17.75;;
42704;SDS011;28342;42.594;23.414;2022-09-27T05:27:35;27.05;;;18.30;;
42704;SDS011;28342;42.594;23.414;2022-09-27T05:30:32;30.80;;;20.45;;
42704;SDS011;28342;42.594;23.414;2022-09-27T05:33:15;27.33;;;19.92;;
42704;SDS011;28342;42.594;23.414;2022-09-27T05:38:56;25.55;;;18.30;;
42704;SDS011;28342;42.594;23.414;2022-09-27T05:41:30;25.75;;;19.38;;
42704;SDS011;28342;42.594;23.414;2022-09-27T05:44:20;27.92;;;18.98;;
42704;SDS011;28342;42.594;23.414;2022-09-27T05:46:49;25.77;;;18.63;;
42704;SDS011;28342;42.594;23.414;2022-09-27T05:53:46;25.10;;;17.25;;
42704;SDS011;28342;42.594;23.414;2022-09-27T05:56:15;19.40;;;14.85;;
42704;SDS011;28342;42.594;23.414;2022-09-27T05:58:41;24.85;;;15.63;;
42704;SDS011;28342;42.594;23.414;2022-09-27T06:01:33;22.98;;;16.73;;
42704;SDS011;28342;42.594;23.414;2022-09-27T06:04:35;20.58;;;15.05;;
42704;SDS011;28342;42.594;23.414;2022-09-27T06:07:08;20.60;;;15.88;;
42704;SDS011;28342;42.594;23.414;2022-09-27T06:09:49;21.95;;;14.90;;
42704;SDS011;28342;42.594;23.414;2022-09-27T06:12:17;19.20;;;14.30;;
42704;SDS011;28342;42.594;23.414;2022-09-27T06:14:45;20.42;;;14.65;;
42704;SDS011;28342;42.594;23.414;2022-09-27T06:17:12;15.85;;;12.48;;
42704;SDS011;28342;42.594;23.414;2022-09-27T06:19:39;16.40;;;12.65;;
42704;SDS011;28342;42.594;23.414;2022-09-27T06:22:05;19.75;;;14.20;;
42704;SDS011;28342;42.594;23.414;2022-09-27T06:24:31;18.48;;;13.80;;
42704;SDS011;28342;42.594;23.414;2022-09-27T06:26:57;17.27;;;14.20;;
42704;SDS011;28342;42.594;23.414;2022-09-27T06:29:24;16.50;;;12.98;;
42704;SDS011;28342;42.594;23.414;2022-09-27T06:31:50;16.45;;;12.40;;
42704;SDS011;28342;42.594;23.414;2022-09-27T06:34:28;13.88;;;11.23;;
42704;SDS011;28342;42.594;23.414;2022-09-27T06:41:52;16.23;;;12.55;;
42704;SDS011;28342;42.594;23.414;2022-09-27T07:03:36;19.77;;;15.10;;
42704;SDS011;28342;42.594;23.414;2022-09-27T07:21:59;17.48;;;12.52;;
42704;SDS011;28342;42.594;23.414;2022-09-27T07:24:30;15.95;;;12.57;;
42704;SDS011;28342;42.594;23.414;2022-09-27T07:27:01;20.73;;;15.18;;
42704;SDS011;28342;42.594;23.414;2022-09-27T07:29:32;15.23;;;11.65;;
42704;SDS011;28342;42.594;23.414;2022-09-27T07:31:58;14.63;;;10.75;;
42704;SDS011;28342;42.594;23.414;2022-09-27T07:34:26;15.55;;;12.65;;
42704;SDS011;28342;42.594;23.414;2022-09-27T07:36:58;16.55;;;13.75;;
42704;SDS011;28342;42.594;23.414;2022-09-27T07:40:10;15.18;;;12.02;;
42704;SDS011;28342;42.594;23.414;2022-09-27T07:42:40;15.75;;;12.63;;
42704;SDS011;28342;42.594;23.414;2022-09-27T07:45:08;14.02;;;11.13;;
42704;SDS011;28342;42.594;23.414;2022-09-27T07:47:39;14.82;;;11.82;;
42704;SDS011;28342;42.594;23.414;2022-09-27T07:50:16;11.18;;;9.80;;
42704;SDS011;28342;42.594;23.414;2022-09-27T07:52:53;14.03;;;11.57;;
42704;SDS011;28342;42.594;23.414;2022-09-27T07:55:19;17.20;;;12.55;;
42704;SDS011;28342;42.594;23.414;2022-09-27T07:57:46;14.73;;;11.00;;
42704;SDS011;28342;42.594;23.414;2022-09-27T08:00:13;15.15;;;12.00;;
42704;SDS011;28342;42.594;23.414;2022-09-27T08:02:41;15.77;;;12.73;;
42704;SDS011;28342;42.594;23.414;2022-09-27T08:05:08;33.58;;;21.98;;
42704;SDS011;28342;42.594;23.414;2022-09-27T08:07:36;33.15;;;24.17;;
42704;SDS011;28342;42.594;23.414;2022-09-27T08:10:06;35.25;;;23.75;;
42704;SDS011;28342;42.594;23.414;2022-09-27T08:12:33;40.85;;;26.00;;
42704;SDS011;28342;42.594;23.414;2022-09-27T08:15:07;42.13;;;27.75;;
42704;SDS011;28342;42.594;23.414;2022-09-27T08:17:34;35.67;;;24.25;;
42704;SDS011;28342;42.594;23.414;2022-09-27T08:20:01;45.85;;;30.52;;
42704;SDS011;28342;42.594;23.414;2022-09-27T08:22:46;35.72;;;24.38;;
42704;SDS011;28342;42.594;23.414;2022-09-27T08:25:16;30.88;;;21.25;;
42704;SDS011;28342;42.594;23.414;2022-09-27T08:27:42;37.67;;;22.33;;
42704;SDS011;28342;42.594;23.414;2022-09-27T08:30:13;33.42;;;22.60;;
42704;SDS011;28342;42.594;23.414;2022-09-27T08:33:29;35.30;;;24.52;;
42704;SDS011;28342;42.594;23.414;2022-09-27T08:36:00;38.63;;;26.67;;
42704;SDS011;28342;42.594;23.414;2022-09-27T08:38:27;41.05;;;28.02;;
